Time;durP1;ratioP1;P1;durP2;ratioP2;P2;SDS_P1;SDS_P2;PMS_P1;PMS_P2;Temp;Humidity;BMP_temperature;BMP_pressure;BME280_temperature;BME280_humidity;BME280_pressure;Samples;Min_cycle;Max_cycle;Signal;HPM_P1;HPM_P2
2021/12/14 08:34:28;;;;;;;178.38;80.78;;;4.10;99.90;;;;;;5066637;28;20942;-56
2021/12/14 08:37:04;;;;;;;135.55;61.75;;;4.20;99.90;;;;;;5068834;28;20028;-65
2021/12/14 08:39:38;;;;;;;101.65;51.47;;;4.30;99.90;;;;;;5069508;28;20025;-64
2021/12/14 08:42:21;;;;;;;94.75;49.15;;;4.60;99.90;;;;;;5069696;28;20032;-63
2021/12/14 08:44:53;;;;;;;93.45;48.78;;;5.00;99.90;;;;;;5068825;28;20021;-69
2021/12/14 08:47:40;;;;;;;93.07;47.85;;;5.30;99.90;;;;;;5068912;28;20028;-60
2021/12/14 08:50:11;;;;;;;126.68;60.83;;;5.60;99.90;;;;;;5065676;28;20032;-61
2021/12/14 08:52:37;;;;;;;126.50;58.80;;;5.80;99.90;;;;;;5067420;28;20029;-67
2021/12/14 08:55:08;;;;;;;109.80;56.47;;;5.70;99.90;;;;;;5056779;28;20029;-61
2021/12/14 08:57:34;;;;;;;96.65;53.80;;;5.70;99.90;;;;;;5068200;28;20100;-63
2021/12/14 09:00:12;;;;;;;131.50;67.47;;;5.70;99.90;;;;;;5067125;28;20634;-63
2021/12/14 09:02:40;;;;;;;114.60;58.22;;;5.90;99.90;;;;;;5067264;28;20098;-63
2021/12/14 09:05:15;;;;;;;162.25;76.13;;;6.10;99.90;;;;;;5069316;28;20104;-60
2021/12/14 09:07:42;;;;;;;174.38;84.15;;;6.10;99.90;;;;;;5068631;28;20530;-61
2021/12/14 09:10:24;;;;;;;147.75;74.88;;;6.00;99.90;;;;;;5068409;28;20071;-63
2021/12/14 09:12:55;;;;;;;135.93;68.32;;;6.00;99.90;;;;;;5061121;28;20035;-62
2021/12/14 09:15:39;;;;;;;139.98;70.13;;;6.20;99.90;;;;;;5056986;28;20406;-73
2021/12/14 09:18:07;;;;;;;126.30;64.72;;;6.20;99.90;;;;;;5053861;28;20411;-61
2021/12/14 09:20:59;;;;;;;126.65;62.75;;;6.30;99.90;;;;;;5048273;28;20041;-61
2021/12/14 09:23:34;;;;;;;114.75;59.22;;;6.40;99.90;;;;;;5050884;28;20031;-59
2021/12/14 09:26:03;;;;;;;105.88;55.13;;;6.40;99.90;;;;;;5052708;28;20406;-57
2021/12/14 09:28:31;;;;;;;103.03;54.03;;;6.40;99.90;;;;;;5059096;28;20504;-65
2021/12/14 09:31:04;;;;;;;94.72;49.55;;;6.60;99.90;;;;;;5060227;28;20426;-68
2021/12/14 09:33:31;;;;;;;;;;;6.90;99.90;;;;;;5053502;28;20056;-69
2021/12/14 09:35:57;;;;;;;82.20;44.92;;;7.30;99.90;;;;;;5051972;28;20278;-64
2021/12/14 09:38:32;;;;;;;89.72;46.78;;;7.70;99.90;;;;;;5051480;28;20036;-66
2021/12/14 09:41:02;;;;;;;84.20;45.00;;;8.10;99.90;;;;;;5051125;28;20602;-61
2021/12/14 09:43:29;;;;;;;86.45;47.40;;;8.10;99.90;;;;;;5047092;28;20096;-62
2021/12/14 09:45:58;;;;;;;74.32;44.03;;;7.80;99.90;;;;;;5043692;28;20036;-63
2021/12/14 09:48:32;;;;;;;81.35;46.55;;;7.80;99.90;;;;;;5040316;28;20029;-64
2021/12/14 09:51:07;;;;;;;76.80;44.50;;;7.90;99.90;;;;;;5048861;28;20033;-64
2021/12/14 09:53:35;;;;;;;68.30;41.30;;;8.00;99.90;;;;;;5043871;28;20037;-58
2021/12/14 09:56:02;;;;;;;65.35;40.03;;;7.90;99.90;;;;;;5032052;28;20487;-62
2021/12/14 09:58:36;;;;;;;64.55;38.70;;;7.90;99.90;;;;;;5034693;28;20014;-62
2021/12/14 10:01:13;;;;;;;69.30;39.40;;;7.80;99.90;;;;;;5043785;28;20025;-59
2021/12/14 10:03:44;;;;;;;61.63;38.85;;;7.90;99.90;;;;;;5040630;28;20479;-58
2021/12/14 10:06:14;;;;;;;68.07;40.58;;;7.90;99.90;;;;;;5038743;28;20028;-63
2021/12/14 10:08:51;;;;;;;65.57;39.40;;;7.80;99.90;;;;;;5037715;28;20028;-63
2021/12/14 10:11:40;;;;;;;66.30;40.47;;;7.90;99.90;;;;;;5039294;28;20383;-58
2021/12/14 10:14:08;;;;;;;64.40;38.13;;;7.90;99.90;;;;;;5042225;28;20044;-57
2021/12/14 10:16:34;;;;;;;73.63;45.42;;;7.90;99.90;;;;;;5047860;28;20502;-59
2021/12/14 10:19:05;;;;;;;82.18;49.22;;;7.90;99.90;;;;;;5041138;28;20079;-60
2021/12/14 10:21:34;;;;;;;147.70;77.97;;;7.80;99.90;;;;;;5041481;28;20474;-58
2021/12/14 10:24:04;;;;;;;118.80;66.15;;;7.70;99.90;;;;;;5041580;28;20021;-54
2021/12/14 10:26:33;;;;;;;105.63;61.45;;;7.60;99.90;;;;;;5039437;28;20029;-64
2021/12/14 10:29:01;;;;;;;102.85;58.20;;;7.60;99.90;;;;;;5038646;28;20028;-64
2021/12/14 10:31:37;;;;;;;98.88;54.78;;;7.80;99.90;;;;;;5038232;28;20033;-59
2021/12/14 10:34:08;;;;;;;122.15;68.50;;;8.00;99.90;;;;;;5035891;28;20726;-64
2021/12/14 10:36:43;;;;;;;138.10;74.65;;;7.90;99.90;;;;;;5039061;28;20325;-62
2021/12/14 10:39:37;;;;;;;121.43;68.75;;;7.70;99.90;;;;;;5037502;28;20025;-57
2021/12/14 10:44:55;;;;;;;112.07;62.33;;;7.20;99.90;;;;;;5037137;28;20036;-59
2021/12/14 10:47:24;;;;;;;114.85;61.80;;;7.10;99.90;;;;;;5050599;28;20501;-58
2021/12/14 10:49:51;;;;;;;119.90;64.63;;;7.10;99.90;;;;;;5047658;28;20375;-65
2021/12/14 10:52:21;;;;;;;104.03;58.80;;;7.10;99.90;;;;;;5041047;28;20034;-60
2021/12/14 10:54:52;;;;;;;104.75;57.65;;;7.40;99.90;;;;;;5039502;28;20032;-61
2021/12/14 10:57:22;;;;;;;94.40;54.40;;;7.60;99.90;;;;;;5039922;28;20021;-64
2021/12/14 10:59:52;;;;;;;93.15;56.40;;;7.70;99.90;;;;;;5035440;28;20049;-61
2021/12/14 11:02:22;;;;;;;87.55;49.78;;;7.70;99.90;;;;;;5041212;28;20017;-59
2021/12/14 11:04:56;;;;;;;91.93;52.90;;;8.00;99.90;;;;;;5037558;28;20030;-61
2021/12/14 11:07:43;;;;;;;93.78;51.55;;;8.00;99.90;;;;;;5036375;28;20025;-57
2021/12/14 11:10:33;;;;;;;105.15;58.03;;;7.80;99.90;;;;;;5029396;28;20037;-61
2021/12/14 11:13:09;;;;;;;133.15;66.63;;;7.60;99.90;;;;;;5037115;28;20135;-63
2021/12/14 11:15:43;;;;;;;136.68;68.18;;;7.40;99.90;;;;;;5037481;28;20713;-61
2021/12/14 11:18:17;;;;;;;140.23;66.55;;;7.70;99.90;;;;;;5040681;28;20029;-62
2021/12/14 11:20:54;;;;;;;105.43;55.85;;;7.90;99.90;;;;;;5044407;28;20320;-60
2021/12/14 11:23:43;;;;;;;106.72;56.97;;;8.00;99.90;;;;;;5048056;28;20070;-63
2021/12/14 11:26:11;;;;;;;116.05;63.08;;;8.20;99.90;;;;;;5043842;28;20061;-61
2021/12/14 11:28:54;;;;;;;101.68;58.17;;;8.30;99.90;;;;;;5031794;28;20040;-56
2021/12/14 11:31:19;;;;;;;97.97;56.40;;;8.30;99.90;;;;;;5052843;28;20533;-64
2021/12/14 11:33:54;;;;;;;93.43;56.55;;;8.40;99.90;;;;;;5037573;28;20045;-63
2021/12/14 11:36:22;;;;;;;87.50;54.20;;;8.50;99.90;;;;;;5039387;28;20036;-59
2021/12/14 11:39:09;;;;;;;77.00;50.17;;;8.70;99.90;;;;;;5029820;28;20156;-65
2021/12/14 11:41:49;;;;;;;86.57;53.95;;;9.00;99.90;;;;;;5041628;28;20215;-63
2021/12/14 11:44:31;;;;;;;100.97;60.90;;;9.30;99.90;;;;;;5033997;28;20029;-64
2021/12/14 11:46:57;;;;;;;109.68;63.53;;;9.60;99.90;;;;;;5042558;28;20021;-61
2021/12/14 11:49:39;;;;;;;93.57;58.83;;;9.50;99.90;;;;;;5039745;28;20028;-57
2021/12/14 11:52:06;;;;;;;85.15;53.97;;;9.20;99.90;;;;;;5039353;28;20021;-60
2021/12/14 11:54:44;;;;;;;84.18;52.47;;;9.20;99.90;;;;;;5043848;28;20082;-58
2021/12/14 11:57:11;;;;;;;76.90;49.92;;;9.30;99.90;;;;;;5041072;28;20386;-62
2021/12/14 11:59:38;;;;;;;70.00;46.40;;;9.60;99.90;;;;;;5039056;28;20075;-63
2021/12/14 12:02:05;;;;;;;83.53;51.03;;;10.10;99.90;;;;;;5040932;28;20073;-67
2021/12/14 12:04:35;;;;;;;79.25;50.40;;;10.50;99.90;;;;;;5037037;28;20511;-60
2021/12/14 12:10:08;;;;;;;80.78;50.72;;;10.90;99.20;;;;;;5041546;28;20079;-58
2021/12/14 12:12:38;;;;;;;75.60;49.42;;;10.80;98.70;;;;;;5034026;28;20025;-62
2021/12/14 12:15:16;;;;;;;68.80;47.45;;;10.60;99.20;;;;;;5044866;28;20079;-66
2021/12/14 12:17:46;;;;;;;63.28;45.72;;;10.60;99.40;;;;;;5038696;28;20445;-59
2021/12/14 12:20:15;;;;;;;65.03;43.22;;;10.60;99.00;;;;;;5050034;28;20031;-56
2021/12/14 12:22:46;;;;;;;64.30;44.40;;;10.70;99.40;;;;;;5036356;28;20127;-60
2021/12/14 12:25:22;;;;;;;69.93;45.72;;;10.70;98.90;;;;;;5043725;28;20077;-58
2021/12/14 12:27:55;;;;;;;89.93;55.53;;;10.70;99.10;;;;;;5033763;28;20036;-63
2021/12/14 12:30:30;;;;;;;89.38;54.33;;;10.60;98.40;;;;;;5038324;28;20112;-70
2021/12/14 12:32:58;;;;;;;86.20;55.33;;;10.40;99.40;;;;;;5049190;28;20041;-59
2021/12/14 12:35:35;;;;;;;96.75;58.63;;;10.20;99.40;;;;;;5043851;28;20028;-62
2021/12/14 12:38:20;;;;;;;102.78;62.17;;;10.10;99.90;;;;;;5043733;28;20028;-67
2021/12/14 12:40:52;;;;;;;95.55;60.67;;;9.90;99.90;;;;;;5044926;28;20028;-62
2021/12/14 12:43:28;;;;;;;84.35;55.33;;;9.80;99.90;;;;;;5049965;28;20036;-68
2021/12/14 12:46:03;;;;;;;88.57;55.55;;;9.80;99.90;;;;;;5049083;28;20029;-60
2021/12/14 12:48:49;;;;;;;90.75;56.30;;;9.80;99.90;;;;;;5049074;28;20424;-62
2021/12/14 12:51:36;;;;;;;81.70;52.22;;;9.70;99.90;;;;;;5031004;28;20091;-58
2021/12/14 12:54:26;;;;;;;94.72;56.30;;;9.60;99.90;;;;;;5031255;28;20422;-61
2021/12/14 12:57:14;;;;;;;93.55;57.63;;;9.60;99.90;;;;;;5030616;28;20021;-57
2021/12/14 13:00:09;;;;;;;89.15;54.47;;;9.50;99.90;;;;;;5031327;28;20087;-60
2021/12/14 13:02:58;;;;;;;98.90;58.40;;;9.50;99.90;;;;;;5031145;28;20483;-62
2021/12/14 13:05:28;;;;;;;107.93;67.15;;;9.50;99.90;;;;;;5032841;28;20317;-59
2021/12/14 13:08:08;;;;;;;117.28;70.68;;;9.40;99.90;;;;;;5034916;28;20036;-63
2021/12/14 13:10:35;;;;;;;101.50;64.10;;;9.30;99.90;;;;;;5051247;28;20092;-61
2021/12/14 13:13:14;;;;;;;101.82;62.65;;;9.30;99.90;;;;;;5050733;28;20340;-62
2021/12/14 13:15:58;;;;;;;112.85;67.47;;;9.30;99.90;;;;;;5035791;28;20351;-65
2021/12/14 13:18:33;;;;;;;;;;;9.40;99.90;;;;;;5027921;28;20017;-66
2021/12/14 13:21:26;;;;;;;126.90;76.55;;;9.40;99.90;;;;;;5032966;28;19912;-62
2021/12/14 13:24:13;;;;;;;114.88;71.72;;;9.00;99.90;;;;;;5035809;28;20033;-61
2021/12/14 13:26:57;;;;;;;101.35;63.65;;;9.00;99.90;;;;;;5041116;28;20028;-62
2021/12/14 13:29:23;;;;;;;105.60;61.58;;;9.10;99.90;;;;;;5043744;28;20025;-61
2021/12/14 13:31:53;;;;;;;99.68;60.58;;;9.20;99.90;;;;;;5042702;28;20478;-61
2021/12/14 13:34:26;;;;;;;87.68;54.40;;;9.20;99.90;;;;;;5046369;28;20049;-60
2021/12/14 13:36:53;;;;;;;82.78;49.08;;;9.10;99.90;;;;;;5044141;28;20100;-63
2021/12/14 13:39:20;;;;;;;74.55;42.42;;;9.00;99.90;;;;;;5034404;28;20091;-61
2021/12/14 13:42:05;;;;;;;71.00;41.13;;;8.90;99.90;;;;;;5033526;28;20472;-62
2021/12/14 13:44:44;;;;;;;69.95;38.92;;;9.00;99.90;;;;;;5036004;28;20064;-61
2021/12/14 13:47:12;;;;;;;63.13;34.45;;;8.90;99.90;;;;;;5034986;28;20018;-63
2021/12/14 13:49:41;;;;;;;69.25;36.47;;;8.90;99.90;;;;;;5035514;28;20032;-64
2021/12/14 13:52:11;;;;;;;57.65;33.67;;;8.70;99.90;;;;;;5034681;28;20064;-61
2021/12/14 13:55:04;;;;;;;61.85;34.17;;;8.70;99.90;;;;;;5037328;28;20479;-63
2021/12/14 13:57:30;;;;;;;58.43;33.00;;;8.70;99.90;;;;;;5033421;28;20053;-62
2021/12/14 13:59:56;;;;;;;69.07;36.25;;;8.80;99.90;;;;;;5032868;28;20295;-61
2021/12/14 14:02:22;;;;;;;76.38;37.08;;;8.80;99.90;;;;;;5032394;28;20056;-63
2021/12/14 14:04:47;;;;;;;70.07;36.30;;;8.90;99.90;;;;;;5030274;28;20026;-61
2021/12/14 14:07:13;;;;;;;61.28;31.65;;;8.80;99.90;;;;;;5030742;28;20070;-62
2021/12/14 14:09:41;;;;;;;56.75;29.80;;;8.70;99.90;;;;;;5030984;28;20034;-59
2021/12/14 14:12:13;;;;;;;61.00;31.52;;;8.60;99.90;;;;;;5031140;28;20025;-63
2021/12/14 14:14:42;;;;;;;212.80;112.25;;;8.50;99.90;;;;;;5031617;28;20061;-64
2021/12/14 14:17:29;;;;;;;250.23;134.80;;;8.50;99.90;;;;;;5032389;28;20083;-64
2021/12/14 14:20:03;;;;;;;364.88;193.00;;;8.10;99.90;;;;;;5033302;28;20495;-63
2021/12/14 14:22:28;;;;;;;;;;;7.60;99.90;;;;;;5032416;28;20029;-61
2021/12/14 14:25:02;;;;;;;355.27;189.45;;;7.30;99.90;;;;;;5032971;28;19916;-60
2021/12/14 14:27:42;;;;;;;307.30;169.82;;;7.00;99.90;;;;;;5033478;28;20420;-61
2021/12/14 14:30:38;;;;;;;283.65;152.32;;;6.60;99.90;;;;;;5034358;28;20502;-63
2021/12/14 14:33:27;;;;;;;382.30;207.73;;;6.50;99.90;;;;;;5034201;28;20065;-62
2021/12/14 14:36:08;;;;;;;344.95;197.05;;;6.20;99.90;;;;;;5034363;28;20029;-62
2021/12/14 14:38:41;;;;;;;314.55;171.68;;;6.00;99.90;;;;;;5035125;28;20017;-61
2021/12/14 14:41:11;;;;;;;317.48;172.25;;;5.90;99.90;;;;;;5035164;28;20026;-63
2021/12/14 14:43:55;;;;;;;330.20;189.05;;;5.70;99.90;;;;;;5035099;28;20061;-63
2021/12/14 14:46:39;;;;;;;434.42;255.15;;;5.60;99.90;;;;;;5034724;28;20033;-61
2021/12/14 14:49:11;;;;;;;393.58;231.68;;;5.40;99.90;;;;;;5034769;28;20435;-62
2021/12/14 14:51:57;;;;;;;244.35;133.75;;;5.10;99.90;;;;;;5034963;28;20036;-63
2021/12/14 14:54:34;;;;;;;251.27;134.23;;;4.90;99.90;;;;;;5034844;28;20112;-63
2021/12/14 14:57:09;;;;;;;351.58;183.65;;;4.80;99.90;;;;;;5034756;28;20029;-65
2021/12/14 14:59:36;;;;;;;356.10;194.27;;;4.60;99.90;;;;;;5034667;28;20024;-62
2021/12/14 15:02:02;;;;;;;277.98;150.27;;;4.50;99.90;;;;;;5034582;28;20017;-60
2021/12/14 15:04:28;;;;;;;283.45;139.93;;;4.70;99.90;;;;;;5034325;28;20041;-62
2021/12/14 15:06:54;;;;;;;268.02;154.15;;;4.80;99.90;;;;;;5034603;28;20026;-61
2021/12/14 15:09:28;;;;;;;323.38;179.85;;;4.70;99.90;;;;;;5034489;28;20026;-64
2021/12/14 15:11:57;;;;;;;311.58;167.73;;;4.60;99.90;;;;;;5034436;28;20083;-64
2021/12/14 15:14:31;;;;;;;314.23;162.32;;;4.60;99.90;;;;;;5034513;28;20561;-63
2021/12/14 15:17:19;;;;;;;346.17;163.73;;;4.70;99.90;;;;;;5034236;28;20384;-63
2021/12/14 15:19:47;;;;;;;284.08;139.48;;;4.70;99.90;;;;;;5034415;28;20028;-63
2021/12/14 15:22:30;;;;;;;318.50;150.63;;;4.70;99.90;;;;;;5034126;28;20071;-62
2021/12/14 15:25:05;;;;;;;373.92;183.77;;;4.60;99.90;;;;;;5034330;28;20021;-62
2021/12/14 15:27:35;;;;;;;375.58;183.40;;;4.60;99.90;;;;;;5034099;28;20024;-61
2021/12/14 15:30:18;;;;;;;276.08;130.15;;;4.50;99.90;;;;;;5034136;28;20017;-63
2021/12/14 15:33:05;;;;;;;280.25;131.20;;;4.60;99.90;;;;;;5033722;28;20119;-64
2021/12/14 15:35:33;;;;;;;285.20;138.63;;;4.90;99.90;;;;;;5034012;28;20040;-61
2021/12/14 15:38:18;;;;;;;321.75;154.32;;;5.20;99.90;;;;;;5033938;28;20079;-64
2021/12/14 15:40:56;;;;;;;;;;;5.30;99.90;;;;;;5034393;28;20148;-62
2021/12/14 15:43:31;;;;;;;317.90;170.38;;;5.30;99.90;;;;;;5033189;28;19909;-63
2021/12/14 15:46:37;;;;;;;327.83;175.68;;;5.10;99.90;;;;;;5033712;28;20383;-60
2021/12/14 15:49:06;;;;;;;340.98;177.10;;;5.10;99.90;;;;;;5036317;28;20067;-60
2021/12/14 15:51:55;;;;;;;397.42;206.52;;;5.10;99.90;;;;;;5033673;28;20033;-61
2021/12/14 15:54:36;;;;;;;352.95;169.88;;;5.00;99.90;;;;;;5033688;28;20029;-60
2021/12/14 15:57:16;;;;;;;272.30;139.57;;;4.90;99.90;;;;;;5033598;28;20551;-60
2021/12/14 15:59:52;;;;;;;299.13;146.95;;;4.90;99.90;;;;;;5032362;28;20090;-61
2021/12/14 16:02:25;;;;;;;321.08;159.68;;;5.00;99.90;;;;;;5033117;28;20529;-61
2021/12/14 16:05:08;;;;;;;365.20;182.57;;;5.00;99.90;;;;;;5033691;28;20475;-59
2021/12/14 16:07:38;;;;;;;279.50;138.55;;;5.00;99.90;;;;;;5033488;28;20025;-59
2021/12/14 16:10:19;;;;;;;231.52;122.55;;;4.90;99.90;;;;;;5033440;28;20033;-60
2021/12/14 16:15:39;;;;;;;241.38;112.18;;;5.00;99.90;;;;;;5033330;28;20541;-61
2021/12/14 16:18:06;;;;;;;224.55;111.40;;;5.20;99.90;;;;;;5033385;28;20030;-61
2021/12/14 16:20:39;;;;;;;330.38;150.60;;;5.20;99.90;;;;;;5033398;28;20018;-61
2021/12/14 16:23:10;;;;;;;443.50;197.27;;;5.20;99.90;;;;;;5033250;28;20029;-62
2021/12/14 16:25:48;;;;;;;352.50;168.30;;;5.20;99.90;;;;;;5033254;28;20042;-61
2021/12/14 16:28:24;;;;;;;367.50;201.15;;;5.20;99.90;;;;;;5033263;28;20539;-64
2021/12/14 16:31:05;;;;;;;317.60;153.60;;;5.20;99.90;;;;;;5032995;28;20399;-61
2021/12/14 16:33:35;;;;;;;326.33;161.60;;;5.10;99.90;;;;;;5033076;28;20403;-61
2021/12/14 16:36:06;;;;;;;352.27;181.02;;;5.10;99.90;;;;;;5032990;28;20032;-59
2021/12/14 16:39:01;;;;;;;377.60;200.35;;;5.10;99.90;;;;;;5033177;28;20021;-61
2021/12/14 16:41:27;;;;;;;312.10;161.00;;;5.00;99.90;;;;;;5034385;28;20042;-61
2021/12/14 16:43:55;;;;;;;282.27;146.48;;;4.90;99.90;;;;;;5032877;28;20032;-62
2021/12/14 16:46:26;;;;;;;235.35;130.45;;;4.90;99.90;;;;;;5033184;28;20419;-60
2021/12/14 16:48:54;;;;;;;212.65;120.63;;;5.00;99.90;;;;;;5033329;28;20052;-63
2021/12/14 16:51:21;;;;;;;208.98;116.60;;;5.00;99.90;;;;;;5033161;28;20049;-62
2021/12/14 16:54:01;;;;;;;204.38;113.18;;;5.10;99.90;;;;;;5033040;28;20430;-60
2021/12/14 16:56:30;;;;;;;176.40;103.63;;;5.20;99.90;;;;;;5037176;28;20056;-63
2021/12/14 16:58:59;;;;;;;220.88;124.47;;;5.20;99.90;;;;;;5036823;28;20013;-61
2021/12/14 17:01:26;;;;;;;213.10;129.52;;;5.10;99.90;;;;;;5036876;28;20037;-58
2021/12/14 17:03:58;;;;;;;269.85;156.75;;;5.00;99.90;;;;;;5036806;28;20021;-60
2021/12/14 17:06:29;;;;;;;215.43;128.30;;;4.80;99.90;;;;;;5035618;28;20364;-60
2021/12/14 17:08:58;;;;;;;246.65;136.75;;;4.70;99.90;;;;;;5036771;28;20030;-60
2021/12/14 17:11:25;;;;;;;334.77;163.10;;;4.70;99.90;;;;;;5036720;28;20025;-63
2021/12/14 17:13:56;;;;;;;251.07;134.07;;;4.80;99.90;;;;;;5036478;28;20368;-60
2021/12/14 17:16:27;;;;;;;285.85;147.25;;;4.90;99.90;;;;;;5036768;28;20109;-62
2021/12/14 17:18:59;;;;;;;384.48;212.23;;;4.90;99.90;;;;;;5036688;28;20104;-60
2021/12/14 17:21:29;;;;;;;301.15;184.07;;;4.90;99.90;;;;;;5036524;28;20025;-60
2021/12/14 17:23:59;;;;;;;264.27;158.68;;;4.80;99.90;;;;;;5036754;28;20030;-60
2021/12/14 17:26:25;;;;;;;245.88;147.23;;;4.70;99.90;;;;;;5036461;28;20053;-61
2021/12/14 17:28:56;;;;;;;218.07;129.95;;;4.70;99.90;;;;;;5036258;28;20172;-61
2021/12/14 17:31:32;;;;;;;301.27;154.50;;;4.70;99.90;;;;;;5036490;28;20028;-61
2021/12/14 17:34:01;;;;;;;318.00;163.38;;;4.70;99.90;;;;;;5036317;28;20041;-63
2021/12/14 17:36:31;;;;;;;289.65;150.32;;;4.60;99.90;;;;;;5036312;28;20022;-63
2021/12/14 17:39:07;;;;;;;386.40;190.38;;;4.70;99.90;;;;;;5036257;28;20495;-60
2021/12/14 17:41:34;;;;;;;381.40;179.82;;;4.80;99.90;;;;;;5036228;28;20023;-61
2021/12/14 17:44:25;;;;;;;435.13;221.85;;;4.90;99.90;;;;;;5036105;28;20067;-60
2021/12/14 17:47:25;;;;;;;356.25;183.35;;;5.00;99.90;;;;;;5038428;28;20033;-63
2021/12/14 17:50:00;;;;;;;244.55;134.40;;;5.00;99.90;;;;;;5036261;28;20017;-62
2021/12/14 17:52:36;;;;;;;219.07;121.60;;;5.00;99.90;;;;;;5036036;28;20029;-62
2021/12/14 17:55:08;;;;;;;204.00;111.32;;;4.90;99.90;;;;;;5035806;28;20029;-60
2021/12/14 17:57:40;;;;;;;169.30;95.03;;;4.90;99.90;;;;;;5035796;28;20101;-61
2021/12/14 18:00:24;;;;;;;188.88;101.82;;;5.00;99.90;;;;;;5035900;28;20025;-59
2021/12/14 18:02:57;;;;;;;298.25;149.30;;;5.00;99.90;;;;;;5035768;28;20028;-60
2021/12/14 18:05:28;;;;;;;273.15;145.23;;;4.90;99.90;;;;;;5035511;28;20387;-59
2021/12/14 18:07:58;;;;;;;266.20;138.55;;;4.80;99.90;;;;;;5035709;28;20464;-62
2021/12/14 18:10:32;;;;;;;357.50;167.18;;;4.70;99.90;;;;;;5035743;28;20096;-61
2021/12/14 18:13:02;;;;;;;357.80;166.30;;;4.70;99.90;;;;;;5035569;28;20034;-61
2021/12/14 18:15:32;;;;;;;355.23;155.57;;;4.80;99.90;;;;;;5035727;28;20049;-62
2021/12/14 18:20:52;;;;;;;473.30;217.52;;;5.10;99.90;;;;;;5035725;28;20028;-61
2021/12/14 18:23:21;;;;;;;417.00;210.90;;;5.20;99.90;;;;;;5035244;28;20080;-63
2021/12/14 18:25:55;;;;;;;318.10;161.18;;;5.10;99.90;;;;;;5035331;28;20035;-61
2021/12/14 18:28:21;;;;;;;294.55;144.93;;;5.00;99.90;;;;;;5035302;28;20498;-61
2021/12/14 18:30:47;;;;;;;275.98;136.63;;;5.10;99.90;;;;;;5035214;28;20022;-59
2021/12/14 18:33:16;;;;;;;262.60;136.43;;;5.20;99.90;;;;;;5035044;28;20045;-61
2021/12/14 18:35:42;;;;;;;392.75;173.10;;;5.20;99.90;;;;;;5035199;28;20068;-62
2021/12/14 18:38:17;;;;;;;396.65;172.70;;;5.10;99.90;;;;;;5035111;28;20025;-61
2021/12/14 18:40:54;;;;;;;354.40;154.65;;;5.00;99.90;;;;;;5035011;28;20491;-62
2021/12/14 18:43:25;;;;;;;293.10;135.95;;;5.10;99.90;;;;;;5034926;28;20032;-59
2021/12/14 18:45:59;;;;;;;290.58;136.68;;;5.20;99.90;;;;;;5035028;28;20029;-59
2021/12/14 18:51:12;;;;;;;243.73;122.38;;;5.10;99.90;;;;;;5034935;28;20036;-62
2021/12/14 18:53:38;;;;;;;328.95;152.40;;;5.10;99.90;;;;;;5034813;28;20032;-61
2021/12/14 18:56:08;;;;;;;333.33;162.85;;;5.10;99.90;;;;;;5034597;28;20020;-63
2021/12/14 18:58:47;;;;;;;270.33;132.85;;;5.00;99.90;;;;;;5034861;28;20018;-60
2021/12/14 19:01:22;;;;;;;250.90;121.47;;;5.00;99.90;;;;;;5034673;28;20033;-60
2021/12/14 19:03:58;;;;;;;254.70;121.75;;;5.10;99.90;;;;;;5034752;28;20045;-62
2021/12/14 19:06:30;;;;;;;201.23;102.22;;;5.20;99.90;;;;;;5034632;28;20032;-60
2021/12/14 19:09:05;;;;;;;224.82;111.03;;;5.30;99.90;;;;;;5034446;28;20017;-61
2021/12/14 19:11:36;;;;;;;238.05;115.28;;;5.40;99.90;;;;;;5034509;28;20025;-61
2021/12/14 19:14:10;;;;;;;273.15;142.35;;;5.50;99.90;;;;;;5034400;28;20360;-63
2021/12/14 19:16:39;;;;;;;;;;;5.50;99.90;;;;;;5034327;28;20025;-62
2021/12/14 19:19:08;;;;;;;195.20;98.45;;;5.50;99.90;;;;;;5034205;28;19905;-60
2021/12/14 19:21:38;;;;;;;176.18;94.47;;;5.50;99.90;;;;;;5034613;28;20164;-59
2021/12/14 19:24:14;;;;;;;183.82;96.72;;;5.50;99.90;;;;;;5034034;28;20025;-61
2021/12/14 19:26:54;;;;;;;173.95;92.07;;;5.60;99.90;;;;;;5034187;28;20060;-59
2021/12/14 19:29:27;;;;;;;176.57;90.20;;;5.60;99.90;;;;;;5034171;28;20057;-62
2021/12/14 19:32:05;;;;;;;150.50;80.97;;;5.70;99.90;;;;;;5033889;28;20101;-59
2021/12/14 19:34:44;;;;;;;146.73;83.00;;;5.70;99.90;;;;;;5034197;28;20442;-60
2021/12/14 19:37:29;;;;;;;245.27;125.78;;;5.70;99.90;;;;;;5033948;28;20433;-60
2021/12/14 19:39:58;;;;;;;588.13;291.55;;;5.70;99.90;;;;;;5033796;28;20041;-62
2021/12/14 19:42:31;;;;;;;496.67;242.00;;;5.40;99.90;;;;;;5033830;28;20096;-60
2021/12/14 19:45:03;;;;;;;427.40;204.48;;;5.20;99.90;;;;;;5034002;28;20037;-62
2021/12/14 19:47:32;;;;;;;400.08;184.07;;;5.20;99.90;;;;;;5034077;28;20025;-62
2021/12/14 19:50:13;;;;;;;511.13;247.88;;;5.20;99.90;;;;;;5033799;28;20025;-62
2021/12/14 19:52:41;;;;;;;477.92;228.50;;;5.20;99.90;;;;;;5033590;28;20035;-59
2021/12/14 19:55:10;;;;;;;458.80;216.43;;;5.10;99.90;;;;;;5033621;28;20017;-62
2021/12/14 19:57:41;;;;;;;643.50;330.27;;;5.20;99.90;;;;;;5033666;28;20078;-60
2021/12/14 20:00:16;;;;;;;736.55;386.48;;;5.10;99.90;;;;;;5033575;28;20041;-61
2021/12/14 20:02:45;;;;;;;628.63;323.50;;;5.00;99.90;;;;;;5033629;28;20104;-61
2021/12/14 20:05:18;;;;;;;576.13;306.35;;;5.00;99.90;;;;;;5033510;28;20109;-61
2021/12/14 20:07:44;;;;;;;483.30;264.45;;;5.20;99.90;;;;;;5033261;28;20026;-63
2021/12/14 20:10:24;;;;;;;472.20;246.48;;;5.10;99.90;;;;;;5033557;28;20155;-60
2021/12/14 20:12:55;;;;;;;448.38;231.95;;;5.00;99.90;;;;;;5033329;28;20130;-60
2021/12/14 20:15:30;;;;;;;491.58;270.30;;;5.00;99.90;;;;;;5033432;28;20490;-60
2021/12/14 20:18:03;;;;;;;403.95;213.43;;;5.00;99.90;;;;;;5032173;28;20369;-62
2021/12/14 20:20:37;;;;;;;393.05;205.07;;;5.00;99.90;;;;;;5033411;28;20026;-62
2021/12/14 20:23:16;;;;;;;334.98;172.18;;;5.00;99.90;;;;;;5033003;28;20112;-60
2021/12/14 20:25:47;;;;;;;369.20;191.68;;;5.10;99.90;;;;;;5033352;28;20053;-60
2021/12/14 20:28:16;;;;;;;321.45;170.13;;;5.20;99.90;;;;;;5033207;28;20044;-60
2021/12/14 20:30:58;;;;;;;286.13;156.07;;;5.10;99.90;;;;;;5033129;28;20487;-62
2021/12/14 20:33:27;;;;;;;265.20;140.90;;;5.20;99.90;;;;;;5032884;28;20042;-63
2021/12/14 20:35:56;;;;;;;263.17;141.85;;;5.20;99.90;;;;;;5032898;28;20056;-60
2021/12/14 20:38:23;;;;;;;246.30;131.07;;;5.30;99.90;;;;;;5033280;28;20101;-60
2021/12/14 20:40:53;;;;;;;297.35;158.40;;;5.30;99.90;;;;;;5033234;28;20113;-61
2021/12/14 20:43:39;;;;;;;294.98;158.70;;;5.20;99.90;;;;;;5032983;28;20112;-62
2021/12/14 20:46:05;;;;;;;319.40;172.30;;;5.10;99.90;;;;;;5033132;28;20029;-61
2021/12/14 20:48:39;;;;;;;321.40;191.18;;;5.10;99.90;;;;;;5033063;28;20075;-61
2021/12/14 20:51:18;;;;;;;326.75;197.18;;;5.00;99.90;;;;;;5033053;28;20072;-62
2021/12/14 20:53:59;;;;;;;286.08;161.35;;;4.90;99.90;;;;;;5032943;28;20030;-59
2021/12/14 20:56:31;;;;;;;297.05;166.63;;;4.90;99.90;;;;;;5033046;28;20046;-62
2021/12/14 20:59:44;;;;;;;331.88;189.90;;;5.00;99.90;;;;;;5032971;28;20032;-59
2021/12/14 21:02:23;;;;;;;281.63;158.90;;;5.00;99.90;;;;;;5030296;28;20372;-60
2021/12/14 21:05:05;;;;;;;251.75;142.50;;;4.90;99.90;;;;;;5032733;28;20044;-61
2021/12/14 21:07:32;;;;;;;229.05;128.85;;;5.00;99.90;;;;;;5032819;28;20018;-61
2021/12/14 21:10:22;;;;;;;249.38;138.00;;;5.10;99.90;;;;;;5032900;28;20021;-59
2021/12/14 21:12:52;;;;;;;242.90;130.93;;;5.20;99.90;;;;;;5032778;28;20029;-62
2021/12/14 21:15:24;;;;;;;264.73;139.93;;;5.20;99.90;;;;;;5032838;28;20030;-60
2021/12/14 21:17:57;;;;;;;270.73;142.73;;;5.30;99.90;;;;;;5032882;28;20387;-61
2021/12/14 21:20:33;;;;;;;272.85;143.20;;;5.20;99.90;;;;;;5032605;28;20096;-59
2021/12/14 21:23:02;;;;;;;206.68;112.10;;;5.10;99.90;;;;;;5032685;28;20036;-60
2021/12/14 21:25:32;;;;;;;198.68;107.03;;;5.00;99.90;;;;;;5032636;28;20072;-61
2021/12/14 21:28:18;;;;;;;192.35;101.65;;;5.10;99.90;;;;;;5032861;28;20519;-60
2021/12/14 21:30:50;;;;;;;228.45;122.07;;;5.20;99.90;;;;;;5033112;28;20037;-60
2021/12/14 21:33:20;;;;;;;210.93;114.18;;;5.20;99.90;;;;;;5032697;28;20048;-60
2021/12/14 21:36:06;;;;;;;212.52;109.60;;;5.20;99.90;;;;;;5032588;28;20446;-61
2021/12/14 21:38:37;;;;;;;246.90;125.88;;;5.20;99.90;;;;;;5032786;28;20048;-60
2021/12/14 21:41:12;;;;;;;201.30;106.78;;;5.20;99.90;;;;;;5034589;28;20108;-60
2021/12/14 21:43:59;;;;;;;175.88;94.95;;;5.20;99.90;;;;;;5036170;28;20029;-61
2021/12/14 21:46:51;;;;;;;161.65;85.53;;;5.20;99.90;;;;;;5036392;28;20430;-60
2021/12/14 21:49:37;;;;;;;206.95;110.15;;;5.30;99.90;;;;;;5035598;28;20026;-63